Terminal Aerodrome Forecast
Issued by NWS Billings, MT

Home | Current Version | Previous Version | Text Only | Print | Product List | Glossary On
Versions: 1 2 3 4 5 6 7 8 9 10 11 12 13 14 15 16 17 18 19 20 21 22 23 24 25 26 27 28
000
FTUS45 KBYZ 031120
TAFSHR
TAF
KSHR 031120Z 0312/0412 VRB04KT P6SM FEW150
     FM031700 12012KT P6SM FEW120
     FM032300 VRB06KT P6SM SKC
     FM040100 VRB06KT P6SM VCTS SCT070CB BKN200=

USA.gov is the U.S. government's official web portal to all federal, state and local government web resources and services.